sensor_id;sensor_type;location;lat;lon;timestamp;pressure;altitude;pressure_sealevel;temperature;humidity
35878;BME280;21982;49.804;24.072;2023-02-15T00:01:32;98689.19;;;4.50;68.21
35878;BME280;21982;49.804;24.072;2023-02-15T00:03:57;98621.84;;;4.04;68.44
35878;BME280;21982;49.804;24.072;2023-02-15T00:06:23;98725.19;;;4.59;68.38
35878;BME280;21982;49.804;24.072;2023-02-15T00:08:49;98725.06;;;4.61;68.51
35878;BME280;21982;49.804;24.072;2023-02-15T00:11:18;98051.59;;;0.65;68.19
35878;BME280;21982;49.804;24.072;2023-02-15T00:14:23;98651.41;;;4.18;68.22
35878;BME280;21982;49.804;24.072;2023-02-15T00:17:32;98703.34;;;4.48;68.67
35878;BME280;21982;49.804;24.072;2023-02-15T00:19:57;98290.81;;;1.98;68.18
35878;BME280;21982;49.804;24.072;2023-02-15T00:22:22;98626.00;;;4.07;68.43
35878;BME280;21982;49.804;24.072;2023-02-15T00:24:48;98337.09;;;1.96;68.64
35878;BME280;21982;49.804;24.072;2023-02-15T00:27:15;98468.78;;;3.15;68.57
35878;BME280;21982;49.804;24.072;2023-02-15T00:29:40;98621.59;;;4.08;68.29
35878;BME280;21982;49.804;24.072;2023-02-15T00:32:05;98702.41;;;4.49;69.08
35878;BME280;21982;49.804;24.072;2023-02-15T00:34:31;98705.88;;;4.49;68.90
35878;BME280;21982;49.804;24.072;2023-02-15T00:36:56;98698.63;;;4.29;68.74
35878;BME280;21982;49.804;24.072;2023-02-15T00:39:22;98723.72;;;4.44;68.77
35878;BME280;21982;49.804;24.072;2023-02-15T00:41:49;98308.22;;;1.74;68.73
35878;BME280;21982;49.804;24.072;2023-02-15T00:44:14;98695.81;;;4.43;68.81
35878;BME280;21982;49.804;24.072;2023-02-15T00:46:40;98696.66;;;4.44;68.65
35878;BME280;21982;49.804;24.072;2023-02-15T00:49:05;98617.94;;;3.86;68.83
35878;BME280;21982;49.804;24.072;2023-02-15T00:51:32;98484.59;;;3.13;69.14
35878;BME280;21982;49.804;24.072;2023-02-15T00:53:57;98291.78;;;1.85;69.11
35878;BME280;21982;49.804;24.072;2023-02-15T00:56:23;98694.38;;;4.39;69.34
35878;BME280;21982;49.804;24.072;2023-02-15T00:58:49;98377.03;;;2.46;68.87
35878;BME280;21982;49.804;24.072;2023-02-15T01:01:19;98607.25;;;3.89;69.37
35878;BME280;21982;49.804;24.072;2023-02-15T01:03:45;98077.66;;;0.65;69.18
35878;BME280;21982;49.804;24.072;2023-02-15T01:06:12;98489.59;;;3.16;69.16
35878;BME280;21982;49.804;24.072;2023-02-15T01:08:38;98681.00;;;4.31;69.16
35878;BME280;21982;49.804;24.072;2023-02-15T01:11:08;98676.25;;;4.36;69.30
35878;BME280;21982;49.804;24.072;2023-02-15T01:13:35;98692.94;;;4.35;69.55
35878;BME280;21982;49.804;24.072;2023-02-15T01:16:00;98463.84;;;2.99;69.34
35878;BME280;21982;49.804;24.072;2023-02-15T01:18:26;98665.72;;;4.25;69.74
35878;BME280;21982;49.804;24.072;2023-02-15T01:20:52;98498.41;;;3.15;69.30
35878;BME280;21982;49.804;24.072;2023-02-15T01:23:17;98591.91;;;3.61;69.66
35878;BME280;21982;49.804;24.072;2023-02-15T01:25:42;98541.00;;;3.41;69.57
35878;BME280;21982;49.804;24.072;2023-02-15T01:28:08;98550.38;;;3.32;69.50
35878;BME280;21982;49.804;24.072;2023-02-15T01:30:33;98288.72;;;1.67;69.61
35878;BME280;21982;49.804;24.072;2023-02-15T01:32:59;98642.25;;;3.88;69.65
35878;BME280;21982;49.804;24.072;2023-02-15T01:35:26;98447.81;;;2.80;69.43
35878;BME280;21982;49.804;24.072;2023-02-15T01:37:52;98395.72;;;2.29;69.02
35878;BME280;21982;49.804;24.072;2023-02-15T01:40:18;98572.69;;;3.49;69.07
35878;BME280;21982;49.804;24.072;2023-02-15T01:42:44;98557.28;;;3.33;69.30
35878;BME280;21982;49.804;24.072;2023-02-15T01:45:19;98667.06;;;3.95;69.28
35878;BME280;21982;49.804;24.072;2023-02-15T01:50:44;98673.56;;;3.79;69.82
35878;BME280;21982;49.804;24.072;2023-02-15T01:53:27;98664.59;;;3.70;69.67
35878;BME280;21982;49.804;24.072;2023-02-15T01:56:02;98679.91;;;3.63;69.58
35878;BME280;21982;49.804;24.072;2023-02-15T01:58:32;98611.84;;;3.27;69.83
35878;BME280;21982;49.804;24.072;2023-02-15T02:01:00;98307.97;;;1.41;69.97
35878;BME280;21982;49.804;24.072;2023-02-15T02:06:23;98220.69;;;0.83;70.31
35878;BME280;21982;49.804;24.072;2023-02-15T02:08:49;97983.84;;;-0.60;70.20
35878;BME280;21982;49.804;24.072;2023-02-15T02:11:15;98533.28;;;2.43;70.78
35878;BME280;21982;49.804;24.072;2023-02-15T02:13:42;98207.00;;;0.41;70.54
35878;BME280;21982;49.804;24.072;2023-02-15T02:16:15;98152.63;;;0.49;70.43
35878;BME280;21982;49.804;24.072;2023-02-15T02:22:05;98643.00;;;3.43;71.18
35878;BME280;21982;49.804;24.072;2023-02-15T02:27:33;98645.63;;;3.43;70.52
35878;BME280;21982;49.804;24.072;2023-02-15T02:33:17;98648.97;;;3.45;70.79
35878;BME280;21982;49.804;24.072;2023-02-15T02:35:51;98652.53;;;3.44;71.47
35878;BME280;21982;49.804;24.072;2023-02-15T02:38:35;98655.06;;;3.45;71.28
35878;BME280;21982;49.804;24.072;2023-02-15T02:43:59;98010.31;;;-0.93;70.84
35878;BME280;21982;49.804;24.072;2023-02-15T02:47:01;98660.75;;;3.26;71.43
35878;BME280;21982;49.804;24.072;2023-02-15T02:52:03;98201.38;;;0.22;71.28
35878;BME280;21982;49.804;24.072;2023-02-15T02:54:29;98671.34;;;3.49;71.74
35878;BME280;21982;49.804;24.072;2023-02-15T02:56:59;98636.66;;;3.34;71.64
35878;BME280;21982;49.804;24.072;2023-02-15T02:59:34;98412.75;;;1.98;71.18
35878;BME280;21982;49.804;24.072;2023-02-15T03:02:07;98681.38;;;3.55;71.75
35878;BME280;21982;49.804;24.072;2023-02-15T03:04:40;98429.78;;;1.78;71.49
35878;BME280;21982;49.804;24.072;2023-02-15T03:07:12;98029.66;;;-0.57;70.97
35878;BME280;21982;49.804;24.072;2023-02-15T03:09:42;98530.78;;;2.78;71.53
35878;BME280;21982;49.804;24.072;2023-02-15T03:12:17;98632.53;;;3.43;71.55
35878;BME280;21982;49.804;24.072;2023-02-15T03:14:48;98684.69;;;3.69;71.31
35878;BME280;21982;49.804;24.072;2023-02-15T03:17:15;98674.94;;;3.72;71.33
35878;BME280;21982;49.804;24.072;2023-02-15T03:19:43;98669.59;;;3.73;71.73
35878;BME280;21982;49.804;24.072;2023-02-15T03:22:18;98663.19;;;3.77;71.51
35878;BME280;21982;49.804;24.072;2023-02-15T03:25:21;98680.59;;;3.78;70.81
35878;BME280;21982;49.804;24.072;2023-02-15T03:27:54;98551.75;;;3.01;71.27
35878;BME280;21982;49.804;24.072;2023-02-15T03:30:24;98495.91;;;2.66;71.33
35878;BME280;21982;49.804;24.072;2023-02-15T03:32:51;98588.50;;;3.24;71.33
35878;BME280;21982;49.804;24.072;2023-02-15T03:35:21;98582.44;;;3.23;71.42
35878;BME280;21982;49.804;24.072;2023-02-15T03:37:56;98438.78;;;2.36;71.35
35878;BME280;21982;49.804;24.072;2023-02-15T03:40:40;98607.84;;;3.34;71.58
35878;BME280;21982;49.804;24.072;2023-02-15T03:43:37;98689.38;;;3.77;71.39
35878;BME280;21982;49.804;24.072;2023-02-15T03:46:11;98671.66;;;3.81;71.66
35878;BME280;21982;49.804;24.072;2023-02-15T03:48:44;98669.16;;;3.79;71.47
35878;BME280;21982;49.804;24.072;2023-02-15T03:51:15;98616.31;;;3.38;71.50
35878;BME280;21982;49.804;24.072;2023-02-15T03:54:12;98646.25;;;3.46;71.27
35878;BME280;21982;49.804;24.072;2023-02-15T03:57:00;98622.72;;;3.33;71.53
35878;BME280;21982;49.804;24.072;2023-02-15T03:59:45;98647.78;;;3.49;71.45
35878;BME280;21982;49.804;24.072;2023-02-15T04:03:37;98692.66;;;3.68;71.13
35878;BME280;21982;49.804;24.072;2023-02-15T04:05:29;98699.06;;;3.64;71.36
35878;BME280;21982;49.804;24.072;2023-02-15T04:07:55;98486.69;;;2.24;71.73
35878;BME280;21982;49.804;24.072;2023-02-15T04:10:20;98391.59;;;1.64;71.47
35878;BME280;21982;49.804;24.072;2023-02-15T04:13:04;98701.41;;;3.56;71.65
35878;BME280;21982;49.804;24.072;2023-02-15T04:15:29;98392.72;;;1.73;71.41
35878;BME280;21982;49.804;24.072;2023-02-15T04:18:14;98628.78;;;3.10;71.91
35878;BME280;21982;49.804;24.072;2023-02-15T04:20:43;98437.63;;;1.91;71.74
35878;BME280;21982;49.804;24.072;2023-02-15T04:23:27;98689.94;;;3.46;71.37
35878;BME280;21982;49.804;24.072;2023-02-15T04:26:11;98345.84;;;1.08;71.25
35878;BME280;21982;49.804;24.072;2023-02-15T04:28:37;98461.66;;;1.83;71.73
35878;BME280;21982;49.804;24.072;2023-02-15T04:31:02;98688.59;;;3.40;71.66
35878;BME280;21982;49.804;24.072;2023-02-15T04:33:27;98636.97;;;2.93;72.04
35878;BME280;21982;49.804;24.072;2023-02-15T04:35:53;98687.00;;;3.38;71.86
35878;BME280;21982;49.804;24.072;2023-02-15T04:38:18;98670.69;;;3.34;71.69
35878;BME280;21982;49.804;24.072;2023-02-15T04:40:43;98705.13;;;3.41;72.06
35878;BME280;21982;49.804;24.072;2023-02-15T04:43:09;98532.94;;;2.47;71.88
35878;BME280;21982;49.804;24.072;2023-02-15T04:45:34;98695.94;;;3.59;71.74
35878;BME280;21982;49.804;24.072;2023-02-15T04:47:59;98708.81;;;3.62;71.98
35878;BME280;21982;49.804;24.072;2023-02-15T04:50:25;98703.59;;;3.62;71.68
35878;BME280;21982;49.804;24.072;2023-02-15T04:52:50;98556.19;;;2.26;71.52
35878;BME280;21982;49.804;24.072;2023-02-15T04:55:16;98651.09;;;2.90;71.83
35878;BME280;21982;49.804;24.072;2023-02-15T04:57:41;98425.91;;;1.84;71.85
35878;BME280;21982;49.804;24.072;2023-02-15T05:00:07;98260.00;;;0.54;72.00
35878;BME280;21982;49.804;24.072;2023-02-15T05:02:33;98303.38;;;1.06;72.04
35878;BME280;21982;49.804;24.072;2023-02-15T05:04:59;98148.22;;;0.12;72.14
35878;BME280;21982;49.804;24.072;2023-02-15T05:07:24;98289.00;;;0.88;72.20
35878;BME280;21982;49.804;24.072;2023-02-15T05:09:50;98093.78;;;-0.31;71.80
35878;BME280;21982;49.804;24.072;2023-02-15T05:12:15;98734.94;;;3.51;72.13
35878;BME280;21982;49.804;24.072;2023-02-15T05:14:40;98660.97;;;3.23;72.19
35878;BME280;21982;49.804;24.072;2023-02-15T05:17:06;98709.56;;;3.51;72.03
35878;BME280;21982;49.804;24.072;2023-02-15T05:19:31;98409.44;;;1.58;71.76
35878;BME280;21982;49.804;24.072;2023-02-15T05:21:56;98405.47;;;1.65;71.96
35878;BME280;21982;49.804;24.072;2023-02-15T05:24:22;98672.47;;;3.33;71.79
35878;BME280;21982;49.804;24.072;2023-02-15T05:27:07;98675.09;;;3.33;72.49
35878;BME280;21982;49.804;24.072;2023-02-15T05:29:51;98381.69;;;1.31;71.57
35878;BME280;21982;49.804;24.072;2023-02-15T05:32:17;98592.84;;;2.76;71.62
35878;BME280;21982;49.804;24.072;2023-02-15T05:34:42;98719.28;;;3.38;71.89
35878;BME280;21982;49.804;24.072;2023-02-15T05:37:07;98189.00;;;-0.14;72.03
35878;BME280;21982;49.804;24.072;2023-02-15T05:39:34;98436.81;;;1.65;71.89
35878;BME280;21982;49.804;24.072;2023-02-15T05:42:00;98488.19;;;1.90;72.02
35878;BME280;21982;49.804;24.072;2023-02-15T05:44:25;98533.63;;;2.13;72.26
35878;BME280;21982;49.804;24.072;2023-02-15T05:46:50;98488.63;;;1.71;72.03
35878;BME280;21982;49.804;24.072;2023-02-15T05:49:16;98638.06;;;2.52;72.46
35878;BME280;21982;49.804;24.072;2023-02-15T05:51:41;98569.25;;;2.14;72.61
35878;BME280;21982;49.804;24.072;2023-02-15T05:54:07;98618.72;;;2.42;72.49
35878;BME280;21982;49.804;24.072;2023-02-15T05:56:32;98495.72;;;1.69;72.69
35878;BME280;21982;49.804;24.072;2023-02-15T05:58:58;98672.78;;;2.29;72.32
35878;BME280;21982;49.804;24.072;2023-02-15T06:01:23;98711.69;;;2.97;72.42
35878;BME280;21982;49.804;24.072;2023-02-15T06:03:49;98706.97;;;2.51;72.53
35878;BME280;21982;49.804;24.072;2023-02-15T06:06:16;98222.47;;;0.05;72.30
35878;BME280;21982;49.804;24.072;2023-02-15T06:08:41;98486.16;;;1.43;72.35
35878;BME280;21982;49.804;24.072;2023-02-15T06:11:07;98548.81;;;2.08;72.14
35878;BME280;21982;49.804;24.072;2023-02-15T06:13:35;98710.84;;;3.09;72.95
35878;BME280;21982;49.804;24.072;2023-02-15T06:16:01;98600.72;;;2.25;72.53
35878;BME280;21982;49.804;24.072;2023-02-15T06:18:26;98726.13;;;3.02;72.85
35878;BME280;21982;49.804;24.072;2023-02-15T06:20:52;98719.13;;;3.03;72.57
35878;BME280;21982;49.804;24.072;2023-02-15T06:23:17;98722.47;;;3.05;72.63
35878;BME280;21982;49.804;24.072;2023-02-15T06:25:45;98098.25;;;-0.99;72.28
35878;BME280;21982;49.804;24.072;2023-02-15T06:28:10;98739.41;;;3.12;72.66
35878;BME280;21982;49.804;24.072;2023-02-15T06:30:36;98419.09;;;1.05;72.50
35878;BME280;21982;49.804;24.072;2023-02-15T06:33:01;98528.00;;;2.06;72.71
35878;BME280;21982;49.804;24.072;2023-02-15T06:35:27;98628.22;;;2.68;72.39
35878;BME280;21982;49.804;24.072;2023-02-15T06:37:52;98425.09;;;1.45;72.79
35878;BME280;21982;49.804;24.072;2023-02-15T06:40:18;98770.81;;;3.25;72.57
35878;BME280;21982;49.804;24.072;2023-02-15T06:42:43;98518.38;;;2.07;72.92
35878;BME280;21982;49.804;24.072;2023-02-15T06:45:15;98589.53;;;2.48;72.49
35878;BME280;21982;49.804;24.072;2023-02-15T06:47:46;98601.22;;;2.68;72.48
35878;BME280;21982;49.804;24.072;2023-02-15T06:50:12;98672.31;;;3.11;72.18
35878;BME280;21982;49.804;24.072;2023-02-15T06:52:37;98642.34;;;3.15;72.20
35878;BME280;21982;49.804;24.072;2023-02-15T06:55:03;98285.47;;;0.89;72.28
35878;BME280;21982;49.804;24.072;2023-02-15T06:57:28;98645.66;;;3.30;71.77
35878;BME280;21982;49.804;24.072;2023-02-15T06:59:54;98700.19;;;3.73;72.06
35878;BME280;21982;49.804;24.072;2023-02-15T07:02:19;98725.66;;;3.94;71.64
35878;BME280;21982;49.804;24.072;2023-02-15T07:04:44;98516.28;;;2.74;71.66
35878;BME280;21982;49.804;24.072;2023-02-15T07:07:11;98672.03;;;3.87;71.38
35878;BME280;21982;49.804;24.072;2023-02-15T07:09:37;98656.53;;;3.84;71.23
35878;BME280;21982;49.804;24.072;2023-02-15T07:12:03;98720.94;;;4.34;71.48
35878;BME280;21982;49.804;24.072;2023-02-15T07:14:47;98722.50;;;4.37;71.07
35878;BME280;21982;49.804;24.072;2023-02-15T07:17:12;98724.91;;;4.40;70.64
35878;BME280;21982;49.804;24.072;2023-02-15T07:19:37;98681.19;;;4.17;70.89
35878;BME280;21982;49.804;24.072;2023-02-15T07:22:03;98724.91;;;4.51;70.53
35878;BME280;21982;49.804;24.072;2023-02-15T07:24:30;98729.72;;;4.57;70.67
35878;BME280;21982;49.804;24.072;2023-02-15T07:26:55;98714.81;;;4.58;70.31
35878;BME280;21982;49.804;24.072;2023-02-15T07:29:20;98720.88;;;4.58;70.00
35878;BME280;21982;49.804;24.072;2023-02-15T07:31:47;98450.78;;;2.99;69.83
35878;BME280;21982;49.804;24.072;2023-02-15T07:34:12;98693.22;;;4.54;70.14
35878;BME280;21982;49.804;24.072;2023-02-15T07:36:37;98732.63;;;4.88;69.70
35878;BME280;21982;49.804;24.072;2023-02-15T07:39:03;98723.94;;;4.98;69.21
35878;BME280;21982;49.804;24.072;2023-02-15T07:41:28;98718.69;;;5.10;69.42
35878;BME280;21982;49.804;24.072;2023-02-15T07:43:53;98659.16;;;4.99;69.15
35878;BME280;21982;49.804;24.072;2023-02-15T07:46:19;98750.41;;;5.73;68.73
35878;BME280;21982;49.804;24.072;2023-02-15T07:48:46;98570.75;;;4.88;67.40
35878;BME280;21982;49.804;24.072;2023-02-15T07:51:12;98699.72;;;5.83;67.79
35878;BME280;21982;49.804;24.072;2023-02-15T07:53:40;98668.59;;;5.56;67.03
35878;BME280;21982;49.804;24.072;2023-02-15T07:56:09;98703.72;;;5.66;67.08
35878;BME280;21982;49.804;24.072;2023-02-15T07:58:35;98582.31;;;4.97;67.22
35878;BME280;21982;49.804;24.072;2023-02-15T08:01:30;98581.94;;;5.01;66.68
35878;BME280;21982;49.804;24.072;2023-02-15T08:03:56;98617.56;;;5.26;66.32
35878;BME280;21982;49.804;24.072;2023-02-15T08:06:24;98638.38;;;5.61;66.69
35878;BME280;21982;49.804;24.072;2023-02-15T08:08:49;98754.78;;;6.07;66.12
35878;BME280;21982;49.804;24.072;2023-02-15T08:11:19;98719.16;;;6.02;65.49
35878;BME280;21982;49.804;24.072;2023-02-15T08:13:55;98721.31;;;6.09;65.82
35878;BME280;21982;49.804;24.072;2023-02-15T08:16:40;98710.09;;;6.27;65.46
35878;BME280;21982;49.804;24.072;2023-02-15T08:19:12;98719.16;;;6.34;65.20
35878;BME280;21982;49.804;24.072;2023-02-15T08:21:49;98716.44;;;6.57;64.97
35878;BME280;21982;49.804;24.072;2023-02-15T08:24:17;98464.94;;;4.88;64.84
35878;BME280;21982;49.804;24.072;2023-02-15T08:26:43;98684.38;;;6.72;64.46
35878;BME280;21982;49.804;24.072;2023-02-15T08:29:12;98702.69;;;7.04;63.65
35878;BME280;21982;49.804;24.072;2023-02-15T08:31:38;98715.50;;;6.88;63.34
35878;BME280;21982;49.804;24.072;2023-02-15T08:34:07;98711.97;;;6.78;63.25
35878;BME280;21982;49.804;24.072;2023-02-15T08:36:33;98738.94;;;6.70;63.53
35878;BME280;21982;49.804;24.072;2023-02-15T08:38:59;98701.16;;;6.51;63.55
35878;BME280;21982;49.804;24.072;2023-02-15T08:41:33;98717.34;;;6.97;63.16
35878;BME280;21982;49.804;24.072;2023-02-15T08:44:05;98671.22;;;7.03;62.71
35878;BME280;21982;49.804;24.072;2023-02-15T08:46:33;98704.53;;;7.54;62.38
35878;BME280;21982;49.804;24.072;2023-02-15T08:48:59;98583.94;;;6.77;61.57
35878;BME280;21982;49.804;24.072;2023-02-15T08:51:32;98711.94;;;7.79;61.32
35878;BME280;21982;49.804;24.072;2023-02-15T08:54:01;98703.38;;;7.87;61.22
35878;BME280;21982;49.804;24.072;2023-02-15T08:56:29;98702.38;;;7.97;60.88
35878;BME280;21982;49.804;24.072;2023-02-15T08:58:55;98703.91;;;8.00;60.75
35878;BME280;21982;49.804;24.072;2023-02-15T09:01:27;98701.00;;;8.03;59.93
35878;BME280;21982;49.804;24.072;2023-02-15T09:03:58;98707.13;;;7.94;59.58
35878;BME280;21982;49.804;24.072;2023-02-15T09:06:24;98715.31;;;8.00;59.75
35878;BME280;21982;49.804;24.072;2023-02-15T09:08:50;98698.25;;;8.14;59.22
35878;BME280;21982;49.804;24.072;2023-02-15T09:11:22;98596.16;;;7.37;58.96
35878;BME280;21982;49.804;24.072;2023-02-15T09:13:54;98707.25;;;8.02;59.01
35878;BME280;21982;49.804;24.072;2023-02-15T09:16:21;98710.03;;;8.00;58.78
35878;BME280;21982;49.804;24.072;2023-02-15T09:18:47;98626.16;;;7.46;58.86
35878;BME280;21982;49.804;24.072;2023-02-15T09:21:18;98702.09;;;8.00;58.56
35878;BME280;21982;49.804;24.072;2023-02-15T09:23:46;98579.69;;;7.45;58.87
35878;BME280;21982;49.804;24.072;2023-02-15T09:26:17;98424.56;;;6.63;58.09
35878;BME280;21982;49.804;24.072;2023-02-15T09:28:43;98703.53;;;8.43;57.20
35878;BME280;21982;49.804;24.072;2023-02-15T09:31:14;98579.56;;;7.56;56.81
35878;BME280;21982;49.804;24.072;2023-02-15T09:33:42;98706.16;;;8.04;57.41
35878;BME280;21982;49.804;24.072;2023-02-15T09:36:16;98715.88;;;7.94;57.83
35878;BME280;21982;49.804;24.072;2023-02-15T09:38:42;98693.56;;;7.49;57.09
35878;BME280;21982;49.804;24.072;2023-02-15T09:44:23;98696.09;;;7.69;56.60
35878;BME280;21982;49.804;24.072;2023-02-15T09:47:29;98693.47;;;7.60;57.60
35878;BME280;21982;49.804;24.072;2023-02-15T09:50:20;98687.75;;;7.55;57.12
35878;BME280;21982;49.804;24.072;2023-02-15T09:56:05;98703.16;;;7.50;56.82
35878;BME280;21982;49.804;24.072;2023-02-15T10:04:00;98574.44;;;6.95;57.01
35878;BME280;21982;49.804;24.072;2023-02-15T10:06:43;98679.03;;;7.64;56.66
35878;BME280;21982;49.804;24.072;2023-02-15T10:20:18;98688.91;;;7.62;56.26
35878;BME280;21982;49.804;24.072;2023-02-15T10:26:11;98656.41;;;7.71;55.06
35878;BME280;21982;49.804;24.072;2023-02-15T10:39:44;98670.19;;;8.03;54.50
35878;BME280;21982;49.804;24.072;2023-02-15T10:42:34;98652.28;;;8.07;54.79
35878;BME280;21982;49.804;24.072;2023-02-15T10:45:06;98642.56;;;8.27;54.20
35878;BME280;21982;49.804;24.072;2023-02-15T10:48:04;98650.16;;;9.78;53.93
35878;BME280;21982;49.804;24.072;2023-02-15T10:50:49;98650.47;;;11.90;52.97
35878;BME280;21982;49.804;24.072;2023-02-15T10:56:13;98647.88;;;15.24;47.79
35878;BME280;21982;49.804;24.072;2023-02-15T11:07:05;98650.69;;;18.64;41.14
35878;BME280;21982;49.804;24.072;2023-02-15T11:09:37;98581.75;;;18.65;39.38
35878;BME280;21982;49.804;24.072;2023-02-15T11:12:09;98582.94;;;18.89;38.59
35878;BME280;21982;49.804;24.072;2023-02-15T11:17:14;98460.47;;;19.01;37.86
35878;BME280;21982;49.804;24.072;2023-02-15T11:20:30;98237.81;;;18.05;36.44
35878;BME280;21982;49.804;24.072;2023-02-15T11:22:32;98623.09;;;20.99;35.75
35878;BME280;21982;49.804;24.072;2023-02-15T11:25:00;98416.78;;;20.06;34.43
35878;BME280;21982;49.804;24.072;2023-02-15T11:27:30;98617.88;;;21.59;33.72
35878;BME280;21982;49.804;24.072;2023-02-15T11:30:12;98622.03;;;21.18;33.88
35878;BME280;21982;49.804;24.072;2023-02-15T11:32:43;98556.59;;;20.31;33.90
35878;BME280;21982;49.804;24.072;2023-02-15T11:37:40;98474.63;;;20.34;33.80
35878;BME280;21982;49.804;24.072;2023-02-15T11:40:29;98612.44;;;21.47;33.66
35878;BME280;21982;49.804;24.072;2023-02-15T11:42:58;98612.50;;;21.22;32.72
35878;BME280;21982;49.804;24.072;2023-02-15T11:45:31;98471.03;;;19.72;32.74
35878;BME280;21982;49.804;24.072;2023-02-15T11:47:58;98188.47;;;17.68;33.31
35878;BME280;21982;49.804;24.072;2023-02-15T11:50:30;98535.09;;;20.06;32.76
35878;BME280;21982;49.804;24.072;2023-02-15T11:52:59;98407.28;;;19.48;32.19
35878;BME280;21982;49.804;24.072;2023-02-15T11:55:26;98605.69;;;21.38;31.64
35878;BME280;21982;49.804;24.072;2023-02-15T12:00:41;98152.16;;;19.04;30.79
35878;BME280;21982;49.804;24.072;2023-02-15T12:03:16;98344.69;;;20.70;30.32
35878;BME280;21982;49.804;24.072;2023-02-15T12:05:47;98504.81;;;21.64;29.56
35878;BME280;21982;49.804;24.072;2023-02-15T12:08:21;98586.19;;;21.72;29.87
35878;BME280;21982;49.804;24.072;2023-02-15T12:11:09;98588.06;;;21.17;29.39
35878;BME280;21982;49.804;24.072;2023-02-15T12:14:04;98572.09;;;21.22;30.36
35878;BME280;21982;49.804;24.072;2023-02-15T12:16:43;98582.66;;;21.72;29.13
35878;BME280;21982;49.804;24.072;2023-02-15T12:21:50;98572.94;;;22.01;28.88
35878;BME280;21982;49.804;24.072;2023-02-15T12:24:26;98568.38;;;21.83;29.00
35878;BME280;21982;49.804;24.072;2023-02-15T12:26:59;98569.81;;;21.56;29.01
35878;BME280;21982;49.804;24.072;2023-02-15T12:29:29;98563.84;;;20.99;29.42
35878;BME280;21982;49.804;24.072;2023-02-15T12:31:56;98295.09;;;18.68;29.44
35878;BME280;21982;49.804;24.072;2023-02-15T12:34:29;98326.47;;;18.99;29.64
35878;BME280;21982;49.804;24.072;2023-02-15T12:37:00;98525.38;;;20.05;29.55
35878;BME280;21982;49.804;24.072;2023-02-15T12:39:31;98559.16;;;20.20;29.75
35878;BME280;21982;49.804;24.072;2023-02-15T12:42:01;98566.59;;;20.24;29.85
35878;BME280;21982;49.804;24.072;2023-02-15T12:44:34;98479.53;;;19.31;29.68
35878;BME280;21982;49.804;24.072;2023-02-15T12:47:16;98551.72;;;19.59;30.05
35878;BME280;21982;49.804;24.072;2023-02-15T12:49:43;98487.47;;;19.06;29.87
35878;BME280;21982;49.804;24.072;2023-02-15T12:54:45;98472.28;;;19.31;29.77
35878;BME280;21982;49.804;24.072;2023-02-15T12:59:50;98449.97;;;19.94;29.27
35878;BME280;21982;49.804;24.072;2023-02-15T13:02:22;98447.75;;;19.84;29.18
35878;BME280;21982;49.804;24.072;2023-02-15T13:04:49;98540.81;;;21.21;28.25
35878;BME280;21982;49.804;24.072;2023-02-15T13:07:15;98547.88;;;21.52;27.39
35878;BME280;21982;49.804;24.072;2023-02-15T13:09:41;98467.50;;;20.83;27.35
35878;BME280;21982;49.804;24.072;2023-02-15T13:12:21;98409.22;;;21.06;27.47
35878;BME280;21982;49.804;24.072;2023-02-15T13:14:54;98389.44;;;20.83;27.08
35878;BME280;21982;49.804;24.072;2023-02-15T13:17:26;97988.78;;;18.03;27.32
35878;BME280;21982;49.804;24.072;2023-02-15T13:20:00;97894.38;;;17.20;27.78
35878;BME280;21982;49.804;24.072;2023-02-15T13:22:42;98491.63;;;20.53;28.16
35878;BME280;21982;49.804;24.072;2023-02-15T13:25:24;98199.03;;;18.46;27.99
35878;BME280;21982;49.804;24.072;2023-02-15T13:27:54;98162.84;;;18.61;28.08
35878;BME280;21982;49.804;24.072;2023-02-15T13:30:33;98125.78;;;17.82;28.12
35878;BME280;21982;49.804;24.072;2023-02-15T13:33:05;98428.31;;;18.88;28.28
35878;BME280;21982;49.804;24.072;2023-02-15T13:35:38;98298.47;;;17.93;29.22
35878;BME280;21982;49.804;24.072;2023-02-15T13:38:21;98250.94;;;17.35;29.32
35878;BME280;21982;49.804;24.072;2023-02-15T13:40:55;98325.91;;;17.88;29.20
35878;BME280;21982;49.804;24.072;2023-02-15T13:49:26;98521.50;;;17.95;30.12
35878;BME280;21982;49.804;24.072;2023-02-15T14:00:26;98509.44;;;17.31;30.41
35878;BME280;21982;49.804;24.072;2023-02-15T14:14:05;98506.53;;;15.52;32.06
35878;BME280;21982;49.804;24.072;2023-02-15T14:19:33;98499.53;;;14.79;32.65
35878;BME280;21982;49.804;24.072;2023-02-15T14:24:44;98507.38;;;14.14;33.12
35878;BME280;21982;49.804;24.072;2023-02-15T14:30:15;98504.19;;;12.96;34.06
35878;BME280;21982;49.804;24.072;2023-02-15T14:32:46;98204.25;;;10.50;34.84
35878;BME280;21982;49.804;24.072;2023-02-15T14:35:15;98358.94;;;11.06;35.46
35878;BME280;21982;49.804;24.072;2023-02-15T14:40:45;98503.59;;;11.25;36.66
35878;BME280;21982;49.804;24.072;2023-02-15T14:49:25;98215.38;;;8.59;37.57
35878;BME280;21982;49.804;24.072;2023-02-15T14:56:43;98273.84;;;7.74;39.31
35878;BME280;21982;49.804;24.072;2023-02-15T14:59:21;98421.00;;;8.35;39.37
35878;BME280;21982;49.804;24.072;2023-02-15T15:01:55;98511.84;;;8.69;40.05
35878;BME280;21982;49.804;24.072;2023-02-15T15:07:03;98500.06;;;8.27;40.58
35878;BME280;21982;49.804;24.072;2023-02-15T15:09:29;98451.31;;;7.74;41.59
35878;BME280;21982;49.804;24.072;2023-02-15T15:14:43;98507.81;;;7.72;41.80
35878;BME280;21982;49.804;24.072;2023-02-15T15:17:51;98298.53;;;6.41;42.01
35878;BME280;21982;49.804;24.072;2023-02-15T15:20:05;98414.25;;;6.91;42.43
35878;BME280;21982;49.804;24.072;2023-02-15T15:22:36;98273.94;;;5.83;42.42
35878;BME280;21982;49.804;24.072;2023-02-15T15:25:04;98473.56;;;7.04;42.50
35878;BME280;21982;49.804;24.072;2023-02-15T15:27:46;98514.88;;;7.14;42.45
35878;BME280;21982;49.804;24.072;2023-02-15T15:32:49;98412.47;;;6.32;43.45
35878;BME280;21982;49.804;24.072;2023-02-15T15:48:38;98274.06;;;4.48;44.94
35878;BME280;21982;49.804;24.072;2023-02-15T15:53:45;98259.41;;;4.66;44.85